Time;durP1;ratioP1;P1;durP2;ratioP2;P2;SDS_P1;SDS_P2;PMS_P1;PMS_P2;Temp;Humidity;BMP_temperature;BMP_pressure;BME280_temperature;BME280_humidity;BME280_pressure;Samples;Min_cycle;Max_cycle;Signal;HPM_P1;HPM_P2
2021/12/19 00:00:40;;;;;;;62.60;30.55;;;3.00;99.90;;;;;;5074945;28;20051;-81
2021/12/19 00:08:52;;;;;;;54.08;28.20;;;3.00;99.90;;;;;;5093435;28;20050;-80
2021/12/19 00:11:21;;;;;;;61.22;28.38;;;3.10;99.90;;;;;;5093395;28;20464;-81
2021/12/19 00:13:47;;;;;;;56.30;27.17;;;2.80;99.90;;;;;;5074945;28;20061;-81
2021/12/19 00:16:14;;;;;;;83.18;28.55;;;2.80;99.90;;;;;;5074928;28;20066;-81
2021/12/19 00:18:43;;;;;;;206.60;30.15;;;2.90;99.90;;;;;;5074806;28;20069;-81
2021/12/19 00:21:11;;;;;;;70.13;29.15;;;2.90;99.90;;;;;;5074859;28;20051;-81
2021/12/19 00:23:38;;;;;;;74.90;29.25;;;2.80;99.90;;;;;;5074786;28;20433;-80
2021/12/19 00:26:04;;;;;;;73.75;28.73;;;2.70;99.90;;;;;;5077716;28;20065;-80
2021/12/19 00:28:29;;;;;;;66.68;29.23;;;2.60;99.90;;;;;;5078859;28;20105;-80
2021/12/19 00:30:55;;;;;;;67.57;31.58;;;2.40;99.90;;;;;;5078864;28;20032;-81
2021/12/19 00:33:21;;;;;;;63.13;29.65;;;2.50;99.90;;;;;;5079102;28;20031;-81
2021/12/19 00:35:47;;;;;;;104.97;28.45;;;2.40;99.90;;;;;;5078831;28;20024;-81
2021/12/19 00:38:13;;;;;;;64.82;28.77;;;2.40;99.90;;;;;;5079526;28;20028;-81
2021/12/19 00:40:39;;;;;;;73.03;27.02;;;2.50;99.90;;;;;;5075107;28;20404;-81
2021/12/19 00:43:09;;;;;;;58.72;27.42;;;2.70;99.90;;;;;;5075295;28;20024;-81
2021/12/19 00:45:39;;;;;;;92.28;28.58;;;2.50;99.90;;;;;;5076847;28;20028;-81
2021/12/19 00:48:07;;;;;;;109.38;29.80;;;2.50;99.90;;;;;;5075173;28;20024;-81
2021/12/19 00:50:35;;;;;;;62.42;27.85;;;2.50;99.90;;;;;;5075213;28;20078;-81
2021/12/19 00:53:01;;;;;;;148.30;30.30;;;2.60;99.90;;;;;;5075173;28;20032;-81
2021/12/19 00:55:28;;;;;;;145.98;28.20;;;2.60;99.90;;;;;;5075089;28;20028;-81
2021/12/19 00:57:54;;;;;;;88.22;29.55;;;2.60;99.90;;;;;;5075049;28;20052;-81
2021/12/19 01:00:23;;;;;;;85.07;28.35;;;2.70;99.90;;;;;;5076218;28;20028;-81
2021/12/19 01:02:51;;;;;;;83.40;26.38;;;2.80;99.90;;;;;;5074892;28;20017;-80
2021/12/19 01:05:18;;;;;;;66.88;26.38;;;2.90;99.90;;;;;;5074859;28;20024;-80
2021/12/19 01:07:44;;;;;;;57.22;26.52;;;3.00;99.90;;;;;;5074847;28;20077;-81
2021/12/19 01:10:10;;;;;;;63.40;27.10;;;2.90;99.90;;;;;;5074822;28;20075;-81
2021/12/19 01:12:38;;;;;;;47.63;25.05;;;2.90;99.90;;;;;;5074756;28;20387;-80
2021/12/19 01:15:10;;;;;;;58.50;26.45;;;2.90;99.90;;;;;;5076033;28;20025;-81
2021/12/19 01:17:35;;;;;;;90.05;24.38;;;3.00;99.90;;;;;;5074629;28;20060;-81
2021/12/19 01:20:08;;;;;;;82.93;25.30;;;3.00;99.90;;;;;;5075804;28;20109;-80
2021/12/19 01:22:34;;;;;;;46.60;24.38;;;3.00;99.90;;;;;;5074630;28;20052;-80
2021/12/19 01:25:00;;;;;;;62.25;24.17;;;3.10;99.90;;;;;;5074555;28;20078;-81
2021/12/19 01:27:26;;;;;;;59.65;26.10;;;2.80;99.90;;;;;;5074439;28;20029;-80
2021/12/19 01:29:51;;;;;;;65.20;25.00;;;2.70;99.90;;;;;;5074466;28;20033;-80
2021/12/19 01:32:17;;;;;;;74.22;24.30;;;2.70;99.90;;;;;;5074389;28;20470;-81
2021/12/19 01:34:43;;;;;;;77.28;25.52;;;2.50;99.90;;;;;;5074411;28;20021;-81
2021/12/19 01:37:08;;;;;;;57.65;23.10;;;2.70;99.90;;;;;;5075495;28;20024;-81
2021/12/19 01:39:34;;;;;;;58.75;22.73;;;2.90;99.90;;;;;;5073971;28;20041;-81
2021/12/19 01:42:00;;;;;;;72.72;21.42;;;2.90;99.90;;;;;;5074215;28;20032;-81
2021/12/19 01:44:26;;;;;;;45.83;23.48;;;3.00;99.90;;;;;;5074177;28;20378;-81
2021/12/19 01:46:53;;;;;;;71.60;23.45;;;3.10;99.90;;;;;;5074104;28;20021;-80
2021/12/19 01:49:21;;;;;;;48.55;22.35;;;3.00;99.90;;;;;;5074036;28;20416;-80
2021/12/19 01:51:47;;;;;;;50.08;22.10;;;2.80;99.90;;;;;;5074043;28;20024;-80
2021/12/19 01:54:14;;;;;;;54.63;21.90;;;2.70;99.90;;;;;;5073961;28;20115;-81
2021/12/19 01:56:40;;;;;;;46.00;22.00;;;2.70;99.90;;;;;;5073933;28;20029;-81
2021/12/19 01:59:09;;;;;;;48.17;20.02;;;2.60;99.90;;;;;;5073893;28;20032;-80
2021/12/19 02:01:44;;;;;;;53.25;20.27;;;2.60;99.90;;;;;;5073846;28;20025;-81
2021/12/19 02:04:10;;;;;;;;;;;2.50;99.90;;;;;;5074236;28;20098;-81
2021/12/19 02:06:36;;;;;;;38.10;18.83;;;2.60;99.90;;;;;;5075038;28;20281;-80
2021/12/19 02:09:06;;;;;;;45.25;18.60;;;2.80;99.90;;;;;;5073707;28;20067;-81
2021/12/19 02:11:36;;;;;;;48.45;19.70;;;2.60;99.90;;;;;;5073664;28;20396;-80
2021/12/19 02:14:03;;;;;;;73.78;18.83;;;2.40;99.90;;;;;;5073707;28;20131;-80
2021/12/19 02:16:29;;;;;;;57.88;19.90;;;2.40;99.90;;;;;;5073613;28;20028;-80
2021/12/19 02:18:56;;;;;;;43.63;19.77;;;2.30;99.90;;;;;;5073498;28;20016;-81
2021/12/19 02:21:22;;;;;;;39.20;20.20;;;2.30;99.90;;;;;;5073408;28;20052;-80
2021/12/19 02:23:48;;;;;;;38.38;18.83;;;2.20;99.90;;;;;;5073399;28;20064;-81
2021/12/19 02:26:15;;;;;;;38.67;17.83;;;2.30;99.90;;;;;;5073350;28;20036;-80
2021/12/19 02:28:40;;;;;;;29.92;17.73;;;2.50;99.90;;;;;;5073323;28;20369;-81
2021/12/19 02:31:07;;;;;;;33.47;17.48;;;2.70;99.90;;;;;;5073282;28;20028;-81
2021/12/19 02:33:37;;;;;;;35.72;16.63;;;2.90;99.90;;;;;;5073224;28;20027;-81
2021/12/19 02:49:23;;;;;;;28.17;16.23;;;2.80;99.90;;;;;;5094503;28;20059;-81
2021/12/19 02:51:51;;;;;;;32.42;16.65;;;2.80;99.90;;;;;;5076164;28;20135;-81
2021/12/19 02:54:17;;;;;;;31.08;14.30;;;2.90;99.90;;;;;;5094396;28;20032;-81
2021/12/19 02:56:43;;;;;;;26.85;15.05;;;2.90;99.90;;;;;;5076109;28;20450;-82
2021/12/19 02:59:08;;;;;;;31.48;16.73;;;3.00;99.90;;;;;;5076076;28;20120;-81
2021/12/19 03:01:35;;;;;;;26.90;14.85;;;2.80;99.90;;;;;;5075931;28;20034;-81
2021/12/19 03:04:00;;;;;;;33.03;15.23;;;2.80;99.90;;;;;;5094351;28;20386;-81
2021/12/19 03:06:26;;;;;;;26.52;14.80;;;2.80;99.90;;;;;;5075882;28;20114;-80
2021/12/19 03:08:53;;;;;;;33.05;14.45;;;2.80;99.90;;;;;;5075790;28;20115;-81
2021/12/19 03:19:50;;;;;;;31.77;13.45;;;2.50;99.90;;;;;;5094500;28;20119;-81
2021/12/19 03:22:15;;;;;;;34.88;11.77;;;2.50;99.90;;;;;;5075588;28;20465;-81
2021/12/19 03:24:41;;;;;;;30.50;14.23;;;2.40;99.90;;;;;;5075634;28;20027;-81
2021/12/19 03:27:07;;;;;;;31.25;13.70;;;2.30;99.90;;;;;;5075505;28;20479;-81
2021/12/19 03:29:33;;;;;;;29.92;13.57;;;2.30;99.90;;;;;;5075523;28;20452;-81
2021/12/19 03:31:58;;;;;;;26.90;13.90;;;2.10;99.90;;;;;;5075455;28;20562;-81
2021/12/19 03:34:24;;;;;;;25.90;14.32;;;2.10;99.90;;;;;;5075491;28;20028;-81
2021/12/19 03:36:51;;;;;;;25.42;13.77;;;2.10;99.90;;;;;;5093587;28;20426;-81
2021/12/19 03:39:26;;;;;;;29.38;12.75;;;2.10;99.90;;;;;;5075193;28;20051;-81
2021/12/19 03:41:56;;;;;;;24.67;14.20;;;2.10;99.90;;;;;;5075341;28;20118;-81
2021/12/19 03:44:23;;;;;;;24.48;12.52;;;2.30;99.90;;;;;;5093727;28;20096;-81
2021/12/19 03:46:49;;;;;;;24.33;12.45;;;2.40;99.90;;;;;;5075294;28;20021;-81
2021/12/19 03:49:18;;;;;;;22.98;13.18;;;2.60;99.90;;;;;;5093439;28;20091;-81
2021/12/19 03:51:43;;;;;;;21.60;13.00;;;2.60;99.90;;;;;;5075258;28;20028;-81
2021/12/19 03:54:09;;;;;;;22.27;11.48;;;2.60;99.90;;;;;;5093335;28;20028;-81
2021/12/19 03:56:35;;;;;;;19.15;11.27;;;2.70;99.90;;;;;;5075134;28;20173;-81
2021/12/19 03:59:01;;;;;;;20.50;11.85;;;2.70;99.90;;;;;;5074558;28;20020;-81
2021/12/19 04:01:26;;;;;;;19.90;11.60;;;2.60;99.90;;;;;;5074658;28;20400;-81
2021/12/19 04:03:52;;;;;;;21.23;11.90;;;2.50;99.90;;;;;;5075084;28;20533;-81
2021/12/19 04:06:18;;;;;;;22.45;12.73;;;2.50;99.90;;;;;;5074996;28;20038;-81
2021/12/19 04:08:44;;;;;;;23.23;12.18;;;2.70;99.90;;;;;;5074982;28;20031;-81
2021/12/19 04:11:10;;;;;;;33.22;11.85;;;2.60;99.90;;;;;;5093383;28;20024;-81
2021/12/19 04:13:35;;;;;;;26.15;11.95;;;2.70;99.90;;;;;;5074983;28;20032;-80
2021/12/19 04:16:01;;;;;;;27.35;12.80;;;2.70;99.90;;;;;;5074964;28;20020;-81
2021/12/19 04:18:27;;;;;;;24.65;11.57;;;2.60;99.90;;;;;;5074889;28;20077;-80
2021/12/19 04:20:53;;;;;;;26.75;13.43;;;2.60;99.90;;;;;;5074886;28;20515;-81
2021/12/19 04:23:19;;;;;;;23.58;11.60;;;2.60;99.90;;;;;;5074900;28;20020;-80
2021/12/19 04:25:45;;;;;;;20.20;11.45;;;2.70;99.90;;;;;;5074827;28;20039;-81
2021/12/19 04:28:11;;;;;;;18.15;10.73;;;2.80;99.90;;;;;;5074757;28;20070;-80
2021/12/19 04:30:37;;;;;;;19.25;10.60;;;2.90;99.90;;;;;;5075125;28;20020;-81
2021/12/19 04:33:08;;;;;;;18.88;11.50;;;2.80;99.90;;;;;;5074733;28;20599;-80
2021/12/19 04:35:36;;;;;;;17.08;11.02;;;2.80;99.90;;;;;;5074826;28;20028;-81
2021/12/19 04:56:59;;;;;;;21.85;13.25;;;2.30;99.90;;;;;;5092738;28;20467;-81
2021/12/19 05:02:49;;;;;;;19.00;11.48;;;2.50;99.90;;;;;;5093209;28;20109;-81
2021/12/19 05:16:01;;;;;;;20.77;11.18;;;2.60;99.90;;;;;;5096637;28;20035;-81
2021/12/19 05:18:30;;;;;;;26.27;11.43;;;2.80;99.90;;;;;;5096193;28;20032;-81
2021/12/19 05:21:00;;;;;;;21.02;12.35;;;2.80;99.90;;;;;;5077921;28;20024;-81
2021/12/19 05:26:02;;;;;;;19.52;12.63;;;2.50;99.90;;;;;;5096186;28;20027;-81
2021/12/19 05:28:28;;;;;;;36.17;12.70;;;2.30;99.90;;;;;;5077877;28;20123;-81
2021/12/19 05:30:54;;;;;;;28.65;12.27;;;2.50;99.90;;;;;;5077815;28;20028;-81
2021/12/19 05:33:20;;;;;;;22.17;11.73;;;2.50;99.90;;;;;;5095925;28;20032;-81
2021/12/19 05:46:29;;;;;;;30.48;12.52;;;2.60;99.90;;;;;;5096313;28;20142;-81
2021/12/19 05:48:55;;;;;;;20.58;12.77;;;2.40;99.90;;;;;;5078210;28;20048;-81
2021/12/19 05:51:21;;;;;;;18.75;10.48;;;2.20;99.90;;;;;;5077476;28;20032;-81
2021/12/19 05:53:47;;;;;;;22.15;10.65;;;2.20;99.90;;;;;;5077364;28;20024;-81
2021/12/19 05:56:13;;;;;;;27.52;10.55;;;2.20;99.90;;;;;;5095514;28;20397;-81
2021/12/19 05:58:39;;;;;;;34.72;10.85;;;2.10;99.90;;;;;;5077545;28;20028;-81
2021/12/19 06:01:05;;;;;;;42.72;11.70;;;2.30;99.90;;;;;;5077179;28;20086;-81
2021/12/19 06:03:30;;;;;;;64.72;11.90;;;2.10;99.90;;;;;;5095351;28;20066;-81
2021/12/19 06:05:56;;;;;;;24.48;11.60;;;2.10;99.90;;;;;;5077377;28;20028;-81
2021/12/19 06:08:22;;;;;;;26.35;11.23;;;2.10;99.90;;;;;;5077103;28;20024;-80
2021/12/19 06:10:48;;;;;;;25.45;11.40;;;2.20;99.90;;;;;;5077065;28;20039;-81
2021/12/19 06:13:14;;;;;;;21.35;11.68;;;2.10;99.90;;;;;;5076996;28;20396;-80
2021/12/19 06:15:39;;;;;;;20.92;10.45;;;2.00;99.90;;;;;;5076945;28;20024;-81
2021/12/19 06:18:05;;;;;;;19.50;10.73;;;2.10;99.90;;;;;;5095013;28;20031;-81
2021/12/19 06:20:31;;;;;;;19.23;10.88;;;2.10;99.90;;;;;;5076765;28;20038;-81
2021/12/19 06:22:58;;;;;;;18.00;9.45;;;2.20;99.90;;;;;;5094006;28;20027;-81
2021/12/19 06:25:24;;;;;;;23.98;8.98;;;2.30;99.90;;;;;;5076825;28;20483;-81
2021/12/19 06:27:50;;;;;;;18.30;9.48;;;2.20;99.90;;;;;;5094885;28;20028;-81
2021/12/19 06:30:16;;;;;;;19.55;8.77;;;2.10;99.90;;;;;;5076933;28;20028;-80
2021/12/19 06:32:41;;;;;;;63.47;10.55;;;2.20;99.90;;;;;;5076579;28;20024;-81
2021/12/19 06:35:17;;;;;;;26.08;10.85;;;2.20;99.90;;;;;;5076526;28;20020;-81
2021/12/19 06:37:44;;;;;;;33.63;10.38;;;2.20;99.90;;;;;;5094737;28;20020;-80
2021/12/19 06:40:12;;;;;;;28.60;10.70;;;2.10;99.90;;;;;;5076293;28;20044;-80
2021/12/19 06:42:38;;;;;;;30.33;11.13;;;2.10;99.90;;;;;;5076416;28;20173;-81
2021/12/19 06:45:05;;;;;;;49.33;11.45;;;2.00;99.90;;;;;;5076401;28;20449;-81
2021/12/19 06:47:31;;;;;;;31.30;11.02;;;2.00;99.90;;;;;;5076226;28;20387;-81
2021/12/19 06:49:57;;;;;;;30.10;11.35;;;2.10;99.90;;;;;;5076329;28;20507;-81
2021/12/19 06:52:23;;;;;;;22.73;10.52;;;2.00;99.90;;;;;;5076240;28;20024;-81
2021/12/19 06:54:49;;;;;;;46.05;10.90;;;2.10;99.90;;;;;;5076234;28;20476;-81
2021/12/19 06:57:14;;;;;;;50.45;10.60;;;2.10;99.90;;;;;;5076068;28;20020;-81
2021/12/19 06:59:40;;;;;;;40.85;10.80;;;2.20;99.90;;;;;;5076008;28;20027;-80
2021/12/19 07:02:06;;;;;;;31.10;11.02;;;2.10;99.90;;;;;;5075945;28;20119;-80
2021/12/19 07:04:32;;;;;;;27.98;9.68;;;2.20;99.90;;;;;;5076003;28;20074;-81
2021/12/19 07:06:58;;;;;;;39.33;10.55;;;2.20;99.90;;;;;;5075921;28;20024;-81
2021/12/19 07:09:24;;;;;;;54.85;18.63;;;2.30;99.90;;;;;;5075897;28;20024;-81
2021/12/19 07:11:49;;;;;;;23.45;11.20;;;2.30;99.90;;;;;;5075887;28;20540;-81
2021/12/19 07:14:15;;;;;;;35.90;10.02;;;2.40;99.90;;;;;;5075739;28;20024;-81
2021/12/19 07:16:41;;;;;;;44.88;11.35;;;2.50;99.90;;;;;;5075719;28;20032;-81
2021/12/19 07:19:07;;;;;;;36.20;14.30;;;2.30;99.90;;;;;;5075694;28;20074;-81
2021/12/19 07:21:33;;;;;;;22.10;11.60;;;2.10;99.90;;;;;;5075909;28;20115;-81
2021/12/19 07:23:58;;;;;;;38.35;11.93;;;2.00;99.90;;;;;;5075545;28;20049;-81
2021/12/19 07:26:24;;;;;;;58.83;13.25;;;2.00;99.90;;;;;;5075608;28;20028;-81
2021/12/19 07:28:50;;;;;;;28.08;10.85;;;1.80;99.90;;;;;;5075440;28;20031;-81
2021/12/19 07:31:18;;;;;;;31.90;10.13;;;1.90;99.90;;;;;;5093689;28;20020;-81
2021/12/19 07:33:45;;;;;;;35.22;11.07;;;1.90;99.90;;;;;;5075255;28;20073;-81
2021/12/19 07:36:12;;;;;;;35.83;10.43;;;1.80;99.90;;;;;;5075382;28;20032;-81
2021/12/19 07:38:50;;;;;;;30.73;11.10;;;1.80;99.90;;;;;;5075402;28;20038;-81
2021/12/19 07:41:16;;;;;;;34.58;11.30;;;1.80;99.90;;;;;;5075337;28;20161;-81
2021/12/19 07:43:42;;;;;;;24.38;9.40;;;1.90;99.90;;;;;;5075334;28;20024;-81
2021/12/19 07:46:08;;;;;;;36.30;9.57;;;2.00;99.90;;;;;;5075260;28;20024;-81
2021/12/19 07:48:33;;;;;;;27.23;9.35;;;1.90;99.90;;;;;;5075470;28;20539;-81
2021/12/19 07:50:59;;;;;;;44.55;9.13;;;1.90;99.90;;;;;;5093592;28;20027;-81
2021/12/19 07:53:25;;;;;;;43.40;10.25;;;2.00;99.90;;;;;;5075194;28;20052;-81
2021/12/19 07:55:51;;;;;;;27.95;9.95;;;1.90;99.90;;;;;;5075121;28;20031;-80
2021/12/19 07:58:17;;;;;;;31.02;9.45;;;1.90;99.90;;;;;;5093217;28;20035;-81
2021/12/19 08:00:42;;;;;;;51.30;9.43;;;1.90;99.90;;;;;;5075027;28;20028;-81
2021/12/19 08:03:08;;;;;;;36.17;10.02;;;1.90;99.90;;;;;;5075173;28;20065;-80
2021/12/19 08:05:34;;;;;;;29.25;8.25;;;1.90;99.90;;;;;;5075037;28;20555;-81
2021/12/19 08:08:03;;;;;;;22.08;9.60;;;1.90;99.90;;;;;;5075028;28;20024;-81
2021/12/19 08:12:59;;;;;;;24.45;9.32;;;1.90;99.90;;;;;;5093157;28;20020;-80
2021/12/19 08:15:25;;;;;;;30.73;8.63;;;1.90;99.90;;;;;;5074897;28;20484;-81
2021/12/19 08:17:50;;;;;;;22.17;8.85;;;1.90;99.90;;;;;;5074914;28;20039;-81
2021/12/19 08:20:17;;;;;;;22.92;9.02;;;2.00;99.90;;;;;;5074814;28;20118;-81
2021/12/19 08:22:44;;;;;;;17.95;10.10;;;2.00;99.90;;;;;;5074883;28;20028;-80
2021/12/19 08:25:10;;;;;;;38.58;8.25;;;2.10;99.90;;;;;;5074867;28;20020;-80
2021/12/19 08:27:37;;;;;;;11.90;7.57;;;2.00;99.90;;;;;;5093302;28;20082;-81
2021/12/19 08:30:05;;;;;;;26.20;8.18;;;2.10;99.90;;;;;;5074876;28;20027;-80
2021/12/19 08:32:31;;;;;;;29.85;9.23;;;2.10;99.90;;;;;;5074832;28;20019;-81
2021/12/19 08:34:57;;;;;;;37.90;8.38;;;2.10;99.90;;;;;;5074737;28;20473;-80
2021/12/19 08:37:23;;;;;;;28.67;11.05;;;2.10;99.90;;;;;;5092949;28;20021;-80
2021/12/19 08:39:49;;;;;;;20.85;9.57;;;2.10;99.90;;;;;;5092721;28;20115;-80
2021/12/19 08:42:15;;;;;;;19.52;7.53;;;2.10;99.90;;;;;;5074657;28;20032;-80
2021/12/19 08:44:41;;;;;;;13.05;7.57;;;2.20;99.90;;;;;;5074695;28;20028;-80
2021/12/19 08:47:07;;;;;;;12.35;7.18;;;2.40;99.90;;;;;;5095666;28;20028;-80
2021/12/19 08:49:34;;;;;;;19.55;6.95;;;2.40;99.90;;;;;;5078697;28;20507;-80
2021/12/19 08:52:01;;;;;;;12.10;6.38;;;2.50;99.90;;;;;;5078605;28;20047;-80
2021/12/19 08:54:27;;;;;;;10.15;6.18;;;2.50;99.90;;;;;;5078571;28;20024;-80
2021/12/19 08:56:52;;;;;;;18.38;7.30;;;2.30;99.90;;;;;;5078566;28;20028;-80
2021/12/19 08:59:18;;;;;;;11.95;7.28;;;2.10;99.90;;;;;;5078393;28;20079;-81
2021/12/19 09:01:44;;;;;;;11.45;7.18;;;2.20;99.90;;;;;;5078282;28;20031;-80
2021/12/19 09:04:10;;;;;;;9.02;5.90;;;2.40;99.90;;;;;;5078372;28;20024;-80
2021/12/19 09:06:36;;;;;;;17.20;8.32;;;2.40;99.90;;;;;;5096569;28;20020;-80
2021/12/19 09:09:04;;;;;;;14.50;6.13;;;2.30;99.90;;;;;;5078196;28;20016;-80
2021/12/19 09:11:31;;;;;;;10.55;6.60;;;2.30;99.90;;;;;;5096427;28;20073;-80
2021/12/19 09:13:56;;;;;;;12.02;7.38;;;2.20;99.90;;;;;;5078230;28;20039;-80
2021/12/19 09:16:22;;;;;;;12.52;7.22;;;2.30;99.90;;;;;;5078483;28;20028;-80
2021/12/19 09:18:48;;;;;;;10.48;6.53;;;2.20;99.90;;;;;;5078017;28;20511;-80
2021/12/19 09:21:14;;;;;;;11.50;6.28;;;2.20;99.90;;;;;;5077924;28;20112;-80
2021/12/19 09:23:40;;;;;;;14.45;6.53;;;2.30;99.90;;;;;;5096186;28;20524;-80
2021/12/19 09:26:06;;;;;;;32.53;13.95;;;2.30;99.90;;;;;;5077924;28;20055;-80
2021/12/19 09:28:32;;;;;;;15.52;7.72;;;2.40;99.90;;;;;;5077938;28;20127;-81
2021/12/19 09:30:58;;;;;;;15.52;8.50;;;2.50;99.90;;;;;;5096340;28;20590;-81
2021/12/19 09:33:24;;;;;;;9.00;6.50;;;2.70;99.90;;;;;;5077766;28;20024;-80
2021/12/19 09:35:49;;;;;;;23.80;6.85;;;2.80;99.90;;;;;;5077731;28;20060;-80
2021/12/19 09:38:15;;;;;;;16.85;6.88;;;2.90;99.90;;;;;;5077693;28;20028;-80
2021/12/19 09:40:43;;;;;;;11.05;6.60;;;2.70;99.90;;;;;;5077387;28;20490;-80
2021/12/19 09:43:41;;;;;;;14.07;7.70;;;2.70;99.90;;;;;;5096046;28;20023;-80
2021/12/19 09:45:59;;;;;;;10.85;7.15;;;2.80;99.90;;;;;;5094059;28;20139;-80
2021/12/19 09:48:26;;;;;;;13.95;6.28;;;2.90;99.90;;;;;;5095605;28;20435;-80
2021/12/19 09:50:53;;;;;;;17.58;6.82;;;2.90;99.90;;;;;;5077485;28;20452;-80
2021/12/19 09:53:19;;;;;;;9.52;6.57;;;2.90;99.90;;;;;;5077308;28;20031;-80
2021/12/19 09:55:45;;;;;;;24.92;7.00;;;2.90;99.90;;;;;;5077383;28;20028;-80
2021/12/19 09:58:11;;;;;;;13.82;7.93;;;2.90;99.90;;;;;;5095461;28;20445;-80
2021/12/19 10:00:37;;;;;;;45.55;6.68;;;2.50;99.90;;;;;;5095338;28;20035;-80
2021/12/19 10:03:03;;;;;;;13.50;6.65;;;2.40;99.90;;;;;;5077299;28;20118;-80
2021/12/19 10:05:29;;;;;;;10.52;6.43;;;2.40;99.90;;;;;;5077198;28;20021;-80
2021/12/19 10:08:01;;;;;;;17.80;5.72;;;2.60;99.90;;;;;;5077136;28;20047;-80
2021/12/19 10:10:46;;;;;;;13.02;5.53;;;2.70;99.90;;;;;;5095617;28;20027;-80
2021/12/19 10:13:13;;;;;;;6.78;4.90;;;2.70;99.90;;;;;;5077118;28;20028;-80
2021/12/19 10:15:43;;;;;;;7.72;5.20;;;2.60;99.90;;;;;;5077080;28;20076;-80
2021/12/19 10:18:13;;;;;;;9.52;5.53;;;2.60;99.90;;;;;;5095148;28;20043;-80
2021/12/19 10:20:42;;;;;;;7.97;5.50;;;2.70;99.90;;;;;;5076890;28;20028;-80
2021/12/19 10:23:23;;;;;;;12.85;4.68;;;2.90;99.90;;;;;;5076816;28;20058;-80
2021/12/19 10:26:07;;;;;;;14.45;5.43;;;2.80;99.90;;;;;;5076788;28;20059;-80
2021/12/19 10:28:47;;;;;;;8.63;5.78;;;2.70;99.90;;;;;;5076881;28;20028;-80
2021/12/19 10:31:13;;;;;;;8.13;5.22;;;2.50;99.90;;;;;;5076588;28;20116;-80
2021/12/19 10:33:39;;;;;;;11.25;5.85;;;2.40;99.90;;;;;;5076693;28;20048;-80
2021/12/19 10:36:07;;;;;;;10.43;6.60;;;2.30;99.90;;;;;;5076623;28;20031;-80
2021/12/19 10:38:44;;;;;;;8.68;5.47;;;2.40;99.90;;;;;;5076568;28;20115;-80
2021/12/19 10:41:17;;;;;;;7.63;4.95;;;2.40;99.90;;;;;;5076555;28;20479;-80
2021/12/19 10:43:51;;;;;;;6.88;5.10;;;2.50;99.90;;;;;;5076549;28;20023;-80
2021/12/19 10:46:30;;;;;;;10.07;6.70;;;2.60;99.90;;;;;;5076514;28;20035;-80
2021/12/19 10:48:57;;;;;;;8.15;5.68;;;2.90;99.90;;;;;;5076778;28;20053;-80
2021/12/19 10:51:24;;;;;;;9.07;5.13;;;3.00;99.90;;;;;;5076304;28;20039;-80
2021/12/19 10:53:53;;;;;;;7.63;4.75;;;3.00;99.90;;;;;;5094443;28;20482;-80
2021/12/19 10:56:39;;;;;;;7.20;4.95;;;3.10;99.90;;;;;;5076217;28;20020;-80
2021/12/19 10:59:08;;;;;;;7.70;5.07;;;3.10;99.90;;;;;;5076239;28;20024;-80
2021/12/19 11:01:48;;;;;;;12.02;6.07;;;3.00;99.90;;;;;;5076009;28;20032;-80
2021/12/19 11:04:16;;;;;;;20.35;5.57;;;3.00;99.90;;;;;;5076078;28;20038;-80
2021/12/19 11:06:54;;;;;;;10.48;6.10;;;2.80;99.90;;;;;;5076005;28;20026;-80
2021/12/19 11:09:28;;;;;;;10.85;5.72;;;2.50;99.90;;;;;;5075376;28;20024;-80
2021/12/19 11:12:05;;;;;;;11.23;5.65;;;2.60;99.90;;;;;;5094470;28;20024;-80
2021/12/19 11:14:40;;;;;;;8.52;5.60;;;2.70;99.90;;;;;;5094022;28;20055;-80
2021/12/19 11:17:21;;;;;;;14.55;5.55;;;2.80;99.90;;;;;;5075852;28;20026;-80
2021/12/19 11:19:52;;;;;;;7.93;5.10;;;2.90;99.90;;;;;;5094047;28;20074;-80
2021/12/19 11:22:25;;;;;;;17.45;4.95;;;2.80;99.90;;;;;;5075845;28;20028;-80
2021/12/19 11:25:00;;;;;;;14.27;5.82;;;2.90;99.90;;;;;;5075729;28;20024;-80
2021/12/19 11:27:28;;;;;;;7.25;5.00;;;2.80;99.90;;;;;;5075609;28;20023;-80
2021/12/19 11:29:56;;;;;;;9.07;5.03;;;2.80;99.90;;;;;;5093777;28;20034;-80
2021/12/19 11:33:03;;;;;;;10.95;5.88;;;2.90;99.90;;;;;;5075472;28;20024;-80
2021/12/19 11:35:33;;;;;;;11.85;5.10;;;2.80;99.90;;;;;;4975912;28;20378;-80
2021/12/19 11:38:02;;;;;;;8.00;4.82;;;2.70;99.90;;;;;;4992320;28;20019;-81
2021/12/19 11:40:35;;;;;;;8.63;5.45;;;2.70;99.90;;;;;;4975492;28;20065;-80
2021/12/19 11:43:10;;;;;;;8.95;5.30;;;2.90;99.90;;;;;;4975744;28;20047;-81
2021/12/19 11:45:47;;;;;;;13.10;7.60;;;3.10;99.90;;;;;;4992357;28;20046;-81
2021/12/19 11:48:27;;;;;;;22.45;13.30;;;3.20;99.90;;;;;;4975655;28;20022;-80
2021/12/19 11:50:59;;;;;;;15.75;6.82;;;3.20;99.90;;;;;;4975745;28;20026;-80
2021/12/19 11:53:41;;;;;;;8.48;5.25;;;3.20;99.90;;;;;;4975798;28;20502;-80
2021/12/19 11:56:11;;;;;;;8.18;4.97;;;3.10;99.90;;;;;;4975627;28;20182;-80
2021/12/19 11:58:45;;;;;;;7.45;5.07;;;3.00;99.90;;;;;;4975337;28;20034;-80
2021/12/19 12:01:21;;;;;;;5.65;3.80;;;2.90;99.90;;;;;;4975483;28;20037;-80
2021/12/19 12:04:12;;;;;;;13.35;8.10;;;2.70;99.90;;;;;;4975508;28;20030;-80
2021/12/19 12:06:54;;;;;;;9.10;6.32;;;2.80;99.90;;;;;;5025776;28;20489;-80
2021/12/19 12:09:24;;;;;;;21.88;10.43;;;3.00;99.90;;;;;;5051811;28;20017;-80
2021/12/19 12:11:59;;;;;;;12.60;5.70;;;3.10;99.90;;;;;;5053323;28;20017;-80
2021/12/19 12:14:31;;;;;;;8.35;5.65;;;3.10;99.90;;;;;;5052966;28;20028;-80
2021/12/19 12:17:08;;;;;;;5.88;4.40;;;3.10;99.90;;;;;;5051570;28;20119;-80
2021/12/19 12:19:40;;;;;;;6.60;4.30;;;3.00;99.90;;;;;;5052384;28;20032;-80
2021/12/19 12:25:02;;;;;;;16.83;7.47;;;2.90;99.90;;;;;;5052835;28;20108;-80
2021/12/19 12:27:39;;;;;;;8.93;5.30;;;3.10;99.90;;;;;;5052751;28;20473;-81
2021/12/19 12:30:12;;;;;;;18.00;9.77;;;3.20;99.90;;;;;;5051488;28;20025;-80
2021/12/19 12:32:39;;;;;;;15.07;6.70;;;3.20;99.90;;;;;;5051541;28;20025;-80
2021/12/19 12:35:05;;;;;;;9.95;5.00;;;3.10;99.90;;;;;;5051349;28;20070;-80
2021/12/19 12:37:33;;;;;;;8.35;4.13;;;3.00;99.90;;;;;;5052701;28;20091;-80
2021/12/19 12:40:31;;;;;;;6.05;4.45;;;3.00;99.90;;;;;;5044359;28;20405;-80
2021/12/19 12:43:01;;;;;;;8.98;4.85;;;2.80;99.90;;;;;;5088286;28;20458;-80
2021/12/19 12:45:29;;;;;;;7.60;5.28;;;2.80;99.90;;;;;;5088152;28;20461;-80
2021/12/19 12:47:55;;;;;;;7.43;5.13;;;3.00;99.90;;;;;;5088311;28;20162;-80
2021/12/19 12:50:21;;;;;;;6.72;4.57;;;3.20;99.90;;;;;;5088131;28;20115;-80
2021/12/19 12:52:46;;;;;;;14.00;8.70;;;3.30;99.90;;;;;;5072866;28;20059;-80
2021/12/19 12:55:14;;;;;;;9.73;6.20;;;3.30;99.90;;;;;;5088113;28;20491;-80
2021/12/19 12:57:43;;;;;;;7.30;4.90;;;3.20;99.90;;;;;;5087996;28;20507;-80
2021/12/19 13:00:30;;;;;;;13.20;6.68;;;3.10;99.90;;;;;;5087972;28;20480;-80
2021/12/19 13:03:21;;;;;;;11.38;4.93;;;3.00;99.90;;;;;;5088189;28;20024;-80
2021/12/19 13:05:48;;;;;;;9.68;5.65;;;3.00;99.90;;;;;;5072765;28;20032;-80
2021/12/19 13:08:20;;;;;;;10.73;5.22;;;2.90;99.90;;;;;;5087975;28;20017;-80
2021/12/19 13:10:52;;;;;;;9.10;6.00;;;2.80;99.90;;;;;;5072400;28;20036;-80
2021/12/19 13:13:18;;;;;;;7.88;5.60;;;2.80;99.90;;;;;;5088024;28;20024;-80
2021/12/19 13:15:44;;;;;;;11.05;7.88;;;3.00;99.90;;;;;;5087895;28;20110;-80
2021/12/19 13:18:10;;;;;;;8.20;6.03;;;3.10;99.90;;;;;;5087865;28;20480;-80
2021/12/19 13:20:37;;;;;;;7.75;5.32;;;3.20;99.90;;;;;;5072404;28;20040;-80
2021/12/19 13:23:03;;;;;;;6.93;4.55;;;3.20;99.90;;;;;;5087871;28;20447;-80
2021/12/19 13:25:39;;;;;;;6.35;4.70;;;3.20;99.90;;;;;;5088826;28;20016;-80
2021/12/19 13:28:11;;;;;;;6.93;4.55;;;3.30;99.90;;;;;;5087990;28;20074;-80
2021/12/19 13:30:42;;;;;;;6.55;4.50;;;3.30;99.90;;;;;;5087629;28;20028;-80
2021/12/19 13:33:11;;;;;;;7.00;5.00;;;3.30;99.90;;;;;;5090395;28;20047;-80
2021/12/19 13:35:49;;;;;;;5.53;4.07;;;3.20;99.90;;;;;;5091279;28;20036;-81
2021/12/19 13:38:17;;;;;;;7.47;4.72;;;3.30;99.90;;;;;;5091222;28;20025;-80
2021/12/19 13:40:52;;;;;;;5.65;4.05;;;3.30;99.90;;;;;;5090967;28;20097;-79
2021/12/19 13:43:20;;;;;;;9.20;4.85;;;3.00;99.90;;;;;;5075562;28;20138;-80
2021/12/19 13:45:56;;;;;;;6.55;4.40;;;2.80;99.90;;;;;;5075504;28;20436;-80
2021/12/19 13:48:27;;;;;;;5.50;3.88;;;2.60;99.90;;;;;;5075439;28;20029;-80
2021/12/19 13:51:05;;;;;;;6.50;4.07;;;2.80;99.90;;;;;;5090956;28;20024;-80
2021/12/19 13:53:32;;;;;;;6.05;4.63;;;2.90;99.90;;;;;;5090991;28;20024;-80
2021/12/19 13:56:04;;;;;;;6.50;4.53;;;3.00;99.90;;;;;;5090960;28;20032;-80
2021/12/19 13:58:37;;;;;;;6.70;4.30;;;2.70;99.90;;;;;;5090879;28;20029;-80
2021/12/19 14:01:22;;;;;;;5.97;4.22;;;2.50;99.90;;;;;;5075273;28;20062;-80
2021/12/19 14:03:59;;;;;;;11.07;6.30;;;2.50;99.90;;;;;;5090979;28;20538;-80
2021/12/19 14:06:31;;;;;;;8.95;5.70;;;2.70;99.90;;;;;;5090761;28;20024;-80
2021/12/19 14:09:21;;;;;;;10.68;5.38;;;2.70;99.90;;;;;;5090808;28;20488;-80